sensor_id;sensor_type;location;lat;lon;timestamp;P1;durP1;ratioP1;P2;durP2;ratioP2
70832;SDS011;58452;59.418;17.962;2023-06-10T00:01:44;0.93;;;0.40;;
70832;SDS011;58452;59.418;17.962;2023-06-10T00:04:12;4.53;;;1.48;;
70832;SDS011;58452;59.418;17.962;2023-06-10T00:06:39;4.63;;;0.73;;
70832;SDS011;58452;59.418;17.962;2023-06-10T00:09:05;0.60;;;0.40;;
70832;SDS011;58452;59.418;17.962;2023-06-10T00:11:36;2.03;;;0.32;;
70832;SDS011;58452;59.418;17.962;2023-06-10T00:14:02;1.38;;;0.45;;
70832;SDS011;58452;59.418;17.962;2023-06-10T00:16:28;3.53;;;0.50;;
70832;SDS011;58452;59.418;17.962;2023-06-10T00:18:53;0.68;;;0.47;;
70832;SDS011;58452;59.418;17.962;2023-06-10T00:21:21;2.25;;;0.50;;
70832;SDS011;58452;59.418;17.962;2023-06-10T00:23:46;0.73;;;0.25;;
70832;SDS011;58452;59.418;17.962;2023-06-10T00:26:12;2.45;;;0.43;;
70832;SDS011;58452;59.418;17.962;2023-06-10T00:28:37;0.85;;;0.50;;
70832;SDS011;58452;59.418;17.962;2023-06-10T00:31:03;1.33;;;0.57;;
70832;SDS011;58452;59.418;17.962;2023-06-10T00:33:29;0.80;;;0.40;;
70832;SDS011;58452;59.418;17.962;2023-06-10T00:35:55;0.50;;;0.45;;
70832;SDS011;58452;59.418;17.962;2023-06-10T00:38:20;2.75;;;0.88;;
70832;SDS011;58452;59.418;17.962;2023-06-10T00:40:45;0.63;;;0.45;;
70832;SDS011;58452;59.418;17.962;2023-06-10T00:43:11;1.20;;;0.40;;
70832;SDS011;58452;59.418;17.962;2023-06-10T00:45:36;2.17;;;1.10;;
70832;SDS011;58452;59.418;17.962;2023-06-10T00:48:02;3.72;;;1.00;;
70832;SDS011;58452;59.418;17.962;2023-06-10T00:50:29;3.25;;;0.90;;
70832;SDS011;58452;59.418;17.962;2023-06-10T00:52:56;4.57;;;0.80;;
70832;SDS011;58452;59.418;17.962;2023-06-10T00:55:22;5.40;;;1.90;;
70832;SDS011;58452;59.418;17.962;2023-06-10T00:57:48;1.77;;;0.80;;
70832;SDS011;58452;59.418;17.962;2023-06-10T01:00:16;1.35;;;0.47;;
70832;SDS011;58452;59.418;17.962;2023-06-10T01:02:42;2.45;;;0.60;;
70832;SDS011;58452;59.418;17.962;2023-06-10T01:05:07;4.22;;;0.88;;
70832;SDS011;58452;59.418;17.962;2023-06-10T01:07:38;2.42;;;0.90;;
70832;SDS011;58452;59.418;17.962;2023-06-10T01:10:28;10.55;;;1.17;;
70832;SDS011;58452;59.418;17.962;2023-06-10T01:12:59;9.45;;;1.02;;
70832;SDS011;58452;59.418;17.962;2023-06-10T01:15:30;8.05;;;1.30;;
70832;SDS011;58452;59.418;17.962;2023-06-10T01:17:57;14.90;;;2.22;;
70832;SDS011;58452;59.418;17.962;2023-06-10T01:20:28;11.00;;;2.33;;
70832;SDS011;58452;59.418;17.962;2023-06-10T01:22:57;4.53;;;1.17;;
70832;SDS011;58452;59.418;17.962;2023-06-10T01:25:24;8.90;;;1.50;;
70832;SDS011;58452;59.418;17.962;2023-06-10T01:28:04;3.53;;;0.90;;
70832;SDS011;58452;59.418;17.962;2023-06-10T01:30:33;6.03;;;1.02;;
70832;SDS011;58452;59.418;17.962;2023-06-10T01:33:09;6.78;;;1.80;;
70832;SDS011;58452;59.418;17.962;2023-06-10T01:35:36;7.13;;;2.47;;
70832;SDS011;58452;59.418;17.962;2023-06-10T01:38:04;7.88;;;1.83;;
70832;SDS011;58452;59.418;17.962;2023-06-10T01:40:30;8.05;;;2.10;;
70832;SDS011;58452;59.418;17.962;2023-06-10T01:42:57;9.57;;;3.10;;
70832;SDS011;58452;59.418;17.962;2023-06-10T01:45:23;9.60;;;3.30;;
70832;SDS011;58452;59.418;17.962;2023-06-10T01:47:48;10.45;;;3.58;;
70832;SDS011;58452;59.418;17.962;2023-06-10T01:50:13;16.45;;;5.07;;
70832;SDS011;58452;59.418;17.962;2023-06-10T01:52:41;16.27;;;5.07;;
70832;SDS011;58452;59.418;17.962;2023-06-10T01:55:07;27.00;;;7.13;;
70832;SDS011;58452;59.418;17.962;2023-06-10T01:57:32;25.80;;;8.30;;
70832;SDS011;58452;59.418;17.962;2023-06-10T01:59:57;24.83;;;9.13;;
70832;SDS011;58452;59.418;17.962;2023-06-10T02:02:23;29.92;;;10.90;;
70832;SDS011;58452;59.418;17.962;2023-06-10T02:04:49;27.58;;;10.95;;
70832;SDS011;58452;59.418;17.962;2023-06-10T02:07:15;30.95;;;10.20;;
70832;SDS011;58452;59.418;17.962;2023-06-10T02:09:41;33.17;;;10.70;;
70832;SDS011;58452;59.418;17.962;2023-06-10T02:12:06;33.55;;;11.38;;
70832;SDS011;58452;59.418;17.962;2023-06-10T02:14:32;31.80;;;10.27;;
70832;SDS011;58452;59.418;17.962;2023-06-10T02:16:58;31.02;;;11.75;;
70832;SDS011;58452;59.418;17.962;2023-06-10T02:19:24;30.75;;;10.63;;
70832;SDS011;58452;59.418;17.962;2023-06-10T02:21:51;36.50;;;11.82;;
70832;SDS011;58452;59.418;17.962;2023-06-10T02:24:17;32.28;;;11.18;;
70832;SDS011;58452;59.418;17.962;2023-06-10T02:26:42;34.80;;;14.43;;
70832;SDS011;58452;59.418;17.962;2023-06-10T02:29:08;37.80;;;10.98;;
70832;SDS011;58452;59.418;17.962;2023-06-10T02:31:33;32.38;;;10.52;;
70832;SDS011;58452;59.418;17.962;2023-06-10T02:34:00;33.67;;;12.45;;
70832;SDS011;58452;59.418;17.962;2023-06-10T02:36:26;35.33;;;11.65;;
70832;SDS011;58452;59.418;17.962;2023-06-10T02:38:52;33.15;;;10.90;;
70832;SDS011;58452;59.418;17.962;2023-06-10T02:41:18;37.00;;;12.32;;
70832;SDS011;58452;59.418;17.962;2023-06-10T02:43:44;38.08;;;11.95;;
70832;SDS011;58452;59.418;17.962;2023-06-10T02:46:10;33.38;;;11.73;;
70832;SDS011;58452;59.418;17.962;2023-06-10T02:48:45;34.13;;;12.65;;
70832;SDS011;58452;59.418;17.962;2023-06-10T02:51:11;34.15;;;12.25;;
70832;SDS011;58452;59.418;17.962;2023-06-10T02:53:37;34.00;;;14.00;;
70832;SDS011;58452;59.418;17.962;2023-06-10T02:56:02;39.22;;;13.77;;
70832;SDS011;58452;59.418;17.962;2023-06-10T02:58:28;35.63;;;11.75;;
70832;SDS011;58452;59.418;17.962;2023-06-10T03:00:53;32.72;;;10.35;;
70832;SDS011;58452;59.418;17.962;2023-06-10T03:03:18;37.35;;;11.90;;
70832;SDS011;58452;59.418;17.962;2023-06-10T03:05:45;31.33;;;11.63;;
70832;SDS011;58452;59.418;17.962;2023-06-10T03:08:10;28.92;;;9.70;;
70832;SDS011;58452;59.418;17.962;2023-06-10T03:10:35;33.10;;;12.05;;
70832;SDS011;58452;59.418;17.962;2023-06-10T03:13:01;37.65;;;12.35;;
70832;SDS011;58452;59.418;17.962;2023-06-10T03:15:26;28.05;;;11.48;;
70832;SDS011;58452;59.418;17.962;2023-06-10T03:17:54;29.27;;;11.00;;
70832;SDS011;58452;59.418;17.962;2023-06-10T03:20:20;26.98;;;9.15;;
70832;SDS011;58452;59.418;17.962;2023-06-10T03:22:46;29.63;;;9.40;;
70832;SDS011;58452;59.418;17.962;2023-06-10T03:25:12;34.38;;;12.52;;
70832;SDS011;58452;59.418;17.962;2023-06-10T03:27:42;44.00;;;13.73;;
70832;SDS011;58452;59.418;17.962;2023-06-10T03:30:08;40.10;;;11.60;;
70832;SDS011;58452;59.418;17.962;2023-06-10T03:32:33;52.72;;;16.83;;
70832;SDS011;58452;59.418;17.962;2023-06-10T03:35:00;56.72;;;17.42;;
70832;SDS011;58452;59.418;17.962;2023-06-10T03:37:26;66.60;;;23.55;;
70832;SDS011;58452;59.418;17.962;2023-06-10T03:39:51;84.57;;;22.48;;
70832;SDS011;58452;59.418;17.962;2023-06-10T03:42:17;77.32;;;24.80;;
70832;SDS011;58452;59.418;17.962;2023-06-10T03:44:42;83.82;;;26.92;;
70832;SDS011;58452;59.418;17.962;2023-06-10T03:47:07;88.07;;;27.83;;
70832;SDS011;58452;59.418;17.962;2023-06-10T03:49:33;88.00;;;26.90;;
70832;SDS011;58452;59.418;17.962;2023-06-10T03:51:58;87.70;;;27.55;;
70832;SDS011;58452;59.418;17.962;2023-06-10T03:54:24;77.65;;;28.67;;
70832;SDS011;58452;59.418;17.962;2023-06-10T03:56:49;68.20;;;24.05;;
70832;SDS011;58452;59.418;17.962;2023-06-10T03:59:15;62.38;;;21.58;;
70832;SDS011;58452;59.418;17.962;2023-06-10T04:01:41;60.63;;;21.88;;
70832;SDS011;58452;59.418;17.962;2023-06-10T04:04:06;57.25;;;21.27;;
70832;SDS011;58452;59.418;17.962;2023-06-10T04:06:32;57.95;;;19.13;;
70832;SDS011;58452;59.418;17.962;2023-06-10T04:08:57;55.50;;;20.95;;
70832;SDS011;58452;59.418;17.962;2023-06-10T04:11:24;49.78;;;20.70;;
70832;SDS011;58452;59.418;17.962;2023-06-10T04:13:49;55.15;;;21.73;;
70832;SDS011;58452;59.418;17.962;2023-06-10T04:16:15;52.40;;;20.60;;
70832;SDS011;58452;59.418;17.962;2023-06-10T04:18:41;67.25;;;24.38;;
70832;SDS011;58452;59.418;17.962;2023-06-10T04:21:07;64.85;;;25.38;;
70832;SDS011;58452;59.418;17.962;2023-06-10T04:23:34;64.95;;;25.05;;
70832;SDS011;58452;59.418;17.962;2023-06-10T04:26:00;73.80;;;27.75;;
70832;SDS011;58452;59.418;17.962;2023-06-10T04:28:25;65.63;;;24.60;;
70832;SDS011;58452;59.418;17.962;2023-06-10T04:30:51;65.28;;;25.63;;
70832;SDS011;58452;59.418;17.962;2023-06-10T04:33:18;54.85;;;23.67;;
70832;SDS011;58452;59.418;17.962;2023-06-10T04:35:43;65.10;;;24.20;;
70832;SDS011;58452;59.418;17.962;2023-06-10T04:38:09;61.75;;;25.30;;
70832;SDS011;58452;59.418;17.962;2023-06-10T04:40:35;51.85;;;20.80;;
70832;SDS011;58452;59.418;17.962;2023-06-10T04:43:00;58.50;;;23.08;;
70832;SDS011;58452;59.418;17.962;2023-06-10T04:45:25;57.10;;;21.92;;
70832;SDS011;58452;59.418;17.962;2023-06-10T04:47:51;55.45;;;20.98;;
70832;SDS011;58452;59.418;17.962;2023-06-10T04:50:16;46.05;;;19.05;;
70832;SDS011;58452;59.418;17.962;2023-06-10T04:52:42;48.05;;;18.25;;
70832;SDS011;58452;59.418;17.962;2023-06-10T04:55:07;41.53;;;17.55;;
70832;SDS011;58452;59.418;17.962;2023-06-10T04:57:33;43.05;;;15.20;;
70832;SDS011;58452;59.418;17.962;2023-06-10T04:59:59;42.50;;;15.60;;
70832;SDS011;58452;59.418;17.962;2023-06-10T05:02:24;36.53;;;13.90;;
70832;SDS011;58452;59.418;17.962;2023-06-10T05:04:50;31.70;;;13.45;;
70832;SDS011;58452;59.418;17.962;2023-06-10T05:07:15;31.83;;;12.10;;
70832;SDS011;58452;59.418;17.962;2023-06-10T05:09:41;25.40;;;10.52;;
70832;SDS011;58452;59.418;17.962;2023-06-10T05:12:06;22.20;;;8.85;;
70832;SDS011;58452;59.418;17.962;2023-06-10T05:14:32;22.45;;;10.18;;
70832;SDS011;58452;59.418;17.962;2023-06-10T05:16:57;21.35;;;8.77;;
70832;SDS011;58452;59.418;17.962;2023-06-10T05:19:23;22.20;;;8.27;;
70832;SDS011;58452;59.418;17.962;2023-06-10T05:21:48;12.93;;;6.70;;
70832;SDS011;58452;59.418;17.962;2023-06-10T05:24:14;11.70;;;5.93;;
70832;SDS011;58452;59.418;17.962;2023-06-10T05:26:39;14.10;;;7.28;;
70832;SDS011;58452;59.418;17.962;2023-06-10T05:29:08;18.60;;;8.90;;
70832;SDS011;58452;59.418;17.962;2023-06-10T05:31:36;26.08;;;11.05;;
70832;SDS011;58452;59.418;17.962;2023-06-10T05:34:01;30.10;;;13.35;;
70832;SDS011;58452;59.418;17.962;2023-06-10T05:36:27;28.65;;;14.23;;
70832;SDS011;58452;59.418;17.962;2023-06-10T05:38:52;49.65;;;18.92;;
70832;SDS011;58452;59.418;17.962;2023-06-10T05:41:18;34.17;;;14.38;;
70832;SDS011;58452;59.418;17.962;2023-06-10T05:43:44;33.08;;;15.57;;
70832;SDS011;58452;59.418;17.962;2023-06-10T05:46:09;31.33;;;13.82;;
70832;SDS011;58452;59.418;17.962;2023-06-10T05:48:35;23.42;;;12.00;;
70832;SDS011;58452;59.418;17.962;2023-06-10T05:51:00;25.75;;;11.25;;
70832;SDS011;58452;59.418;17.962;2023-06-10T05:53:26;34.88;;;13.75;;
70832;SDS011;58452;59.418;17.962;2023-06-10T05:55:51;25.02;;;11.10;;
70832;SDS011;58452;59.418;17.962;2023-06-10T05:58:18;36.22;;;17.58;;
70832;SDS011;58452;59.418;17.962;2023-06-10T06:00:45;39.97;;;18.98;;
70832;SDS011;58452;59.418;17.962;2023-06-10T06:03:11;48.30;;;20.52;;
70832;SDS011;58452;59.418;17.962;2023-06-10T06:05:37;57.38;;;26.67;;
70832;SDS011;58452;59.418;17.962;2023-06-10T06:08:06;36.28;;;18.08;;
70832;SDS011;58452;59.418;17.962;2023-06-10T06:10:32;37.58;;;17.63;;
70832;SDS011;58452;59.418;17.962;2023-06-10T06:12:58;41.22;;;18.83;;
70832;SDS011;58452;59.418;17.962;2023-06-10T06:15:24;24.13;;;13.48;;
70832;SDS011;58452;59.418;17.962;2023-06-10T06:17:50;19.30;;;11.27;;
70832;SDS011;58452;59.418;17.962;2023-06-10T06:20:18;20.52;;;10.32;;
70832;SDS011;58452;59.418;17.962;2023-06-10T06:22:46;17.33;;;9.48;;
70832;SDS011;58452;59.418;17.962;2023-06-10T06:25:12;24.90;;;10.60;;
70832;SDS011;58452;59.418;17.962;2023-06-10T06:27:37;21.02;;;10.38;;
70832;SDS011;58452;59.418;17.962;2023-06-10T06:30:03;21.33;;;10.20;;
70832;SDS011;58452;59.418;17.962;2023-06-10T06:32:29;23.50;;;10.20;;
70832;SDS011;58452;59.418;17.962;2023-06-10T06:34:54;16.60;;;7.53;;
70832;SDS011;58452;59.418;17.962;2023-06-10T06:37:21;18.50;;;8.60;;
70832;SDS011;58452;59.418;17.962;2023-06-10T06:39:47;27.15;;;10.20;;
70832;SDS011;58452;59.418;17.962;2023-06-10T06:42:13;14.55;;;6.80;;
70832;SDS011;58452;59.418;17.962;2023-06-10T06:44:39;11.05;;;5.88;;
70832;SDS011;58452;59.418;17.962;2023-06-10T06:47:04;14.13;;;6.25;;
70832;SDS011;58452;59.418;17.962;2023-06-10T06:49:30;11.80;;;6.22;;
70832;SDS011;58452;59.418;17.962;2023-06-10T06:51:55;17.48;;;8.13;;
70832;SDS011;58452;59.418;17.962;2023-06-10T06:54:21;13.77;;;6.10;;
70832;SDS011;58452;59.418;17.962;2023-06-10T06:56:46;13.77;;;7.05;;
70832;SDS011;58452;59.418;17.962;2023-06-10T06:59:11;12.68;;;5.95;;
70832;SDS011;58452;59.418;17.962;2023-06-10T07:01:39;11.70;;;5.50;;
70832;SDS011;58452;59.418;17.962;2023-06-10T07:04:04;9.52;;;4.85;;
70832;SDS011;58452;59.418;17.962;2023-06-10T07:06:30;8.15;;;4.65;;
70832;SDS011;58452;59.418;17.962;2023-06-10T07:08:55;10.70;;;4.50;;
70832;SDS011;58452;59.418;17.962;2023-06-10T07:11:21;5.43;;;3.00;;
70832;SDS011;58452;59.418;17.962;2023-06-10T07:13:47;11.60;;;3.58;;
70832;SDS011;58452;59.418;17.962;2023-06-10T07:16:12;4.90;;;2.17;;
70832;SDS011;58452;59.418;17.962;2023-06-10T07:18:38;6.45;;;2.75;;
70832;SDS011;58452;59.418;17.962;2023-06-10T07:21:03;5.18;;;2.30;;
70832;SDS011;58452;59.418;17.962;2023-06-10T07:23:28;7.55;;;1.55;;
70832;SDS011;58452;59.418;17.962;2023-06-10T07:25:54;3.97;;;1.20;;
70832;SDS011;58452;59.418;17.962;2023-06-10T07:28:19;0.60;;;0.60;;
70832;SDS011;58452;59.418;17.962;2023-06-10T07:30:45;2.40;;;0.50;;
70832;SDS011;58452;59.418;17.962;2023-06-10T07:33:10;2.58;;;0.60;;
70832;SDS011;58452;59.418;17.962;2023-06-10T07:35:36;0.47;;;0.30;;
70832;SDS011;58452;59.418;17.962;2023-06-10T07:38:01;3.20;;;0.90;;
70832;SDS011;58452;59.418;17.962;2023-06-10T07:40:26;0.75;;;0.57;;
70832;SDS011;58452;59.418;17.962;2023-06-10T07:42:52;0.75;;;0.55;;
70832;SDS011;58452;59.418;17.962;2023-06-10T07:45:18;0.55;;;0.45;;
70832;SDS011;58452;59.418;17.962;2023-06-10T07:47:43;1.85;;;0.50;;
70832;SDS011;58452;59.418;17.962;2023-06-10T07:50:09;2.92;;;0.75;;
70832;SDS011;58452;59.418;17.962;2023-06-10T07:52:35;2.58;;;0.52;;
70832;SDS011;58452;59.418;17.962;2023-06-10T07:55:01;0.30;;;0.30;;
70832;SDS011;58452;59.418;17.962;2023-06-10T07:57:26;0.40;;;0.28;;
70832;SDS011;58452;59.418;17.962;2023-06-10T07:59:51;2.40;;;0.70;;
70832;SDS011;58452;59.418;17.962;2023-06-10T08:02:17;0.70;;;0.30;;
70832;SDS011;58452;59.418;17.962;2023-06-10T08:04:42;1.88;;;0.40;;
70832;SDS011;58452;59.418;17.962;2023-06-10T08:07:07;0.50;;;0.50;;
70832;SDS011;58452;59.418;17.962;2023-06-10T08:09:33;0.98;;;0.45;;
70832;SDS011;58452;59.418;17.962;2023-06-10T08:11:59;0.40;;;0.32;;
70832;SDS011;58452;59.418;17.962;2023-06-10T08:14:24;3.22;;;1.10;;
70832;SDS011;58452;59.418;17.962;2023-06-10T08:16:49;0.52;;;0.40;;
70832;SDS011;58452;59.418;17.962;2023-06-10T08:19:15;1.50;;;0.32;;
70832;SDS011;58452;59.418;17.962;2023-06-10T08:21:40;1.60;;;0.50;;
70832;SDS011;58452;59.418;17.962;2023-06-10T08:24:06;1.40;;;0.63;;
70832;SDS011;58452;59.418;17.962;2023-06-10T08:26:32;0.80;;;0.40;;
70832;SDS011;58452;59.418;17.962;2023-06-10T08:28:57;0.60;;;0.35;;
70832;SDS011;58452;59.418;17.962;2023-06-10T08:31:23;1.42;;;0.38;;
70832;SDS011;58452;59.418;17.962;2023-06-10T08:33:48;0.65;;;0.40;;
70832;SDS011;58452;59.418;17.962;2023-06-10T08:36:15;0.70;;;0.22;;
70832;SDS011;58452;59.418;17.962;2023-06-10T08:38:40;1.90;;;0.40;;
70832;SDS011;58452;59.418;17.962;2023-06-10T08:41:06;1.30;;;0.63;;
70832;SDS011;58452;59.418;17.962;2023-06-10T08:43:39;0.38;;;0.38;;
70832;SDS011;58452;59.418;17.962;2023-06-10T08:46:10;0.60;;;0.50;;
70832;SDS011;58452;59.418;17.962;2023-06-10T08:48:39;0.57;;;0.50;;
70832;SDS011;58452;59.418;17.962;2023-06-10T08:51:08;9.70;;;0.90;;
70832;SDS011;58452;59.418;17.962;2023-06-10T08:53:36;1.27;;;0.63;;
70832;SDS011;58452;59.418;17.962;2023-06-10T08:56:06;5.20;;;0.60;;
70832;SDS011;58452;59.418;17.962;2023-06-10T08:58:32;3.88;;;0.57;;
70832;SDS011;58452;59.418;17.962;2023-06-10T09:01:00;5.80;;;0.47;;
70832;SDS011;58452;59.418;17.962;2023-06-10T09:03:25;0.88;;;0.40;;
70832;SDS011;58452;59.418;17.962;2023-06-10T09:05:51;0.70;;;0.30;;
70832;SDS011;58452;59.418;17.962;2023-06-10T09:08:17;0.32;;;0.32;;
70832;SDS011;58452;59.418;17.962;2023-06-10T09:10:43;4.97;;;0.40;;
70832;SDS011;58452;59.418;17.962;2023-06-10T09:13:08;1.50;;;0.50;;
70832;SDS011;58452;59.418;17.962;2023-06-10T09:15:34;3.63;;;0.55;;
70832;SDS011;58452;59.418;17.962;2023-06-10T09:17:59;0.43;;;0.32;;
70832;SDS011;58452;59.418;17.962;2023-06-10T09:20:25;0.60;;;0.40;;
70832;SDS011;58452;59.418;17.962;2023-06-10T09:22:51;0.30;;;0.30;;
70832;SDS011;58452;59.418;17.962;2023-06-10T09:25:16;0.38;;;0.30;;
70832;SDS011;58452;59.418;17.962;2023-06-10T09:27:49;0.30;;;0.30;;
70832;SDS011;58452;59.418;17.962;2023-06-10T09:32:58;5.43;;;0.47;;
70832;SDS011;58452;59.418;17.962;2023-06-10T09:35:26;1.40;;;0.50;;
70832;SDS011;58452;59.418;17.962;2023-06-10T09:37:52;2.05;;;0.95;;
70832;SDS011;58452;59.418;17.962;2023-06-10T09:40:18;2.17;;;0.55;;
70832;SDS011;58452;59.418;17.962;2023-06-10T09:42:44;1.98;;;0.43;;
70832;SDS011;58452;59.418;17.962;2023-06-10T09:45:10;1.65;;;0.40;;
70832;SDS011;58452;59.418;17.962;2023-06-10T09:47:36;1.30;;;0.30;;
70832;SDS011;58452;59.418;17.962;2023-06-10T09:50:01;1.38;;;0.45;;
70832;SDS011;58452;59.418;17.962;2023-06-10T09:52:27;3.40;;;0.63;;
70832;SDS011;58452;59.418;17.962;2023-06-10T09:54:55;0.50;;;0.40;;
70832;SDS011;58452;59.418;17.962;2023-06-10T09:57:24;1.70;;;0.30;;
70832;SDS011;58452;59.418;17.962;2023-06-10T09:59:53;0.30;;;0.30;;
70832;SDS011;58452;59.418;17.962;2023-06-10T10:02:19;1.90;;;0.40;;
70832;SDS011;58452;59.418;17.962;2023-06-10T10:04:45;1.70;;;0.55;;
70832;SDS011;58452;59.418;17.962;2023-06-10T10:07:10;0.90;;;0.38;;
70832;SDS011;58452;59.418;17.962;2023-06-10T10:09:40;0.60;;;0.50;;
70832;SDS011;58452;59.418;17.962;2023-06-10T10:12:10;0.30;;;0.30;;
70832;SDS011;58452;59.418;17.962;2023-06-10T10:14:37;0.40;;;0.40;;
70832;SDS011;58452;59.418;17.962;2023-06-10T10:17:07;3.10;;;0.70;;
70832;SDS011;58452;59.418;17.962;2023-06-10T10:19:37;2.05;;;0.45;;
70832;SDS011;58452;59.418;17.962;2023-06-10T10:22:10;0.90;;;0.38;;
70832;SDS011;58452;59.418;17.962;2023-06-10T10:24:42;0.82;;;0.65;;
70832;SDS011;58452;59.418;17.962;2023-06-10T10:27:17;3.03;;;0.68;;
70832;SDS011;58452;59.418;17.962;2023-06-10T10:29:46;2.65;;;0.50;;
70832;SDS011;58452;59.418;17.962;2023-06-10T10:32:15;0.70;;;0.40;;
70832;SDS011;58452;59.418;17.962;2023-06-10T10:37:30;2.28;;;0.40;;
70832;SDS011;58452;59.418;17.962;2023-06-10T10:39:56;1.45;;;0.45;;
70832;SDS011;58452;59.418;17.962;2023-06-10T10:42:22;0.65;;;0.40;;
70832;SDS011;58452;59.418;17.962;2023-06-10T10:44:48;0.50;;;0.50;;
70832;SDS011;58452;59.418;17.962;2023-06-10T10:47:15;1.58;;;0.35;;
70832;SDS011;58452;59.418;17.962;2023-06-10T10:49:43;0.30;;;0.30;;
70832;SDS011;58452;59.418;17.962;2023-06-10T10:52:13;0.70;;;0.70;;
70832;SDS011;58452;59.418;17.962;2023-06-10T10:54:39;1.65;;;0.45;;
70832;SDS011;58452;59.418;17.962;2023-06-10T10:59:44;0.98;;;0.30;;
70832;SDS011;58452;59.418;17.962;2023-06-10T11:02:36;3.40;;;0.60;;
70832;SDS011;58452;59.418;17.962;2023-06-10T11:05:06;1.00;;;0.55;;
70832;SDS011;58452;59.418;17.962;2023-06-10T11:07:33;3.28;;;0.68;;
70832;SDS011;58452;59.418;17.962;2023-06-10T11:10:08;0.63;;;0.50;;
70832;SDS011;58452;59.418;17.962;2023-06-10T11:15:10;3.38;;;0.38;;
70832;SDS011;58452;59.418;17.962;2023-06-10T11:17:36;1.00;;;0.63;;
70832;SDS011;58452;59.418;17.962;2023-06-10T11:20:02;1.23;;;0.30;;
70832;SDS011;58452;59.418;17.962;2023-06-10T11:22:27;0.40;;;0.35;;
70832;SDS011;58452;59.418;17.962;2023-06-10T11:24:53;1.85;;;0.45;;
70832;SDS011;58452;59.418;17.962;2023-06-10T11:29:57;1.85;;;0.57;;
70832;SDS011;58452;59.418;17.962;2023-06-10T11:32:25;1.00;;;0.52;;
70832;SDS011;58452;59.418;17.962;2023-06-10T11:34:59;1.00;;;0.63;;
70832;SDS011;58452;59.418;17.962;2023-06-10T11:37:27;1.88;;;0.32;;
70832;SDS011;58452;59.418;17.962;2023-06-10T11:39:56;4.20;;;0.65;;
70832;SDS011;58452;59.418;17.962;2023-06-10T11:42:22;1.75;;;0.30;;
70832;SDS011;58452;59.418;17.962;2023-06-10T11:44:51;1.77;;;0.40;;
70832;SDS011;58452;59.418;17.962;2023-06-10T11:47:18;0.40;;;0.40;;
70832;SDS011;58452;59.418;17.962;2023-06-10T11:49:44;0.50;;;0.50;;
70832;SDS011;58452;59.418;17.962;2023-06-10T11:52:10;3.47;;;0.50;;
70832;SDS011;58452;59.418;17.962;2023-06-10T11:54:36;3.10;;;0.40;;
70832;SDS011;58452;59.418;17.962;2023-06-10T11:57:02;1.45;;;0.40;;
70832;SDS011;58452;59.418;17.962;2023-06-10T11:59:28;9.23;;;1.10;;
70832;SDS011;58452;59.418;17.962;2023-06-10T12:01:55;3.30;;;0.43;;
70832;SDS011;58452;59.418;17.962;2023-06-10T12:04:20;0.57;;;0.50;;
70832;SDS011;58452;59.418;17.962;2023-06-10T12:06:48;2.55;;;0.40;;
70832;SDS011;58452;59.418;17.962;2023-06-10T12:11:54;3.58;;;0.55;;
70832;SDS011;58452;59.418;17.962;2023-06-10T12:20:02;0.75;;;0.60;;
70832;SDS011;58452;59.418;17.962;2023-06-10T12:22:37;2.05;;;0.50;;
70832;SDS011;58452;59.418;17.962;2023-06-10T12:25:03;3.30;;;0.65;;
70832;SDS011;58452;59.418;17.962;2023-06-10T12:27:31;1.27;;;0.65;;
70832;SDS011;58452;59.418;17.962;2023-06-10T12:29:58;0.50;;;0.47;;
70832;SDS011;58452;59.418;17.962;2023-06-10T12:32:35;5.35;;;0.77;;
70832;SDS011;58452;59.418;17.962;2023-06-10T12:35:04;1.30;;;1.13;;
70832;SDS011;58452;59.418;17.962;2023-06-10T12:37:31;3.38;;;0.40;;
70832;SDS011;58452;59.418;17.962;2023-06-10T12:39:59;0.85;;;0.55;;
70832;SDS011;58452;59.418;17.962;2023-06-10T12:42:26;1.40;;;0.75;;
70832;SDS011;58452;59.418;17.962;2023-06-10T12:44:54;2.00;;;0.50;;
70832;SDS011;58452;59.418;17.962;2023-06-10T12:47:28;1.98;;;0.43;;
70832;SDS011;58452;59.418;17.962;2023-06-10T12:49:56;0.68;;;0.40;;
70832;SDS011;58452;59.418;17.962;2023-06-10T12:52:22;0.93;;;0.73;;
70832;SDS011;58452;59.418;17.962;2023-06-10T12:54:47;0.40;;;0.40;;
70832;SDS011;58452;59.418;17.962;2023-06-10T12:57:13;1.20;;;0.43;;
70832;SDS011;58452;59.418;17.962;2023-06-10T12:59:38;0.63;;;0.50;;
70832;SDS011;58452;59.418;17.962;2023-06-10T13:02:05;2.05;;;0.50;;
70832;SDS011;58452;59.418;17.962;2023-06-10T13:04:30;0.45;;;0.43;;
70832;SDS011;58452;59.418;17.962;2023-06-10T13:06:56;1.95;;;0.50;;
70832;SDS011;58452;59.418;17.962;2023-06-10T13:09:21;10.40;;;1.02;;
70832;SDS011;58452;59.418;17.962;2023-06-10T13:11:47;0.75;;;0.50;;
70832;SDS011;58452;59.418;17.962;2023-06-10T13:14:13;3.67;;;0.60;;
70832;SDS011;58452;59.418;17.962;2023-06-10T13:16:38;4.85;;;0.75;;
70832;SDS011;58452;59.418;17.962;2023-06-10T13:19:04;1.75;;;0.40;;
70832;SDS011;58452;59.418;17.962;2023-06-10T13:21:30;0.65;;;0.65;;
70832;SDS011;58452;59.418;17.962;2023-06-10T13:23:57;1.55;;;0.30;;
70832;SDS011;58452;59.418;17.962;2023-06-10T13:26:22;0.43;;;0.30;;
70832;SDS011;58452;59.418;17.962;2023-06-10T13:28:48;1.70;;;0.68;;
70832;SDS011;58452;59.418;17.962;2023-06-10T13:31:13;1.35;;;0.60;;
70832;SDS011;58452;59.418;17.962;2023-06-10T13:33:39;0.45;;;0.38;;
70832;SDS011;58452;59.418;17.962;2023-06-10T13:36:05;3.72;;;1.45;;
70832;SDS011;58452;59.418;17.962;2023-06-10T13:38:31;2.20;;;0.50;;
70832;SDS011;58452;59.418;17.962;2023-06-10T13:40:56;0.65;;;0.40;;
70832;SDS011;58452;59.418;17.962;2023-06-10T13:43:22;1.95;;;0.50;;
70832;SDS011;58452;59.418;17.962;2023-06-10T13:45:47;2.40;;;0.40;;
70832;SDS011;58452;59.418;17.962;2023-06-10T13:48:13;0.90;;;0.50;;
70832;SDS011;58452;59.418;17.962;2023-06-10T13:50:38;1.58;;;0.50;;
70832;SDS011;58452;59.418;17.962;2023-06-10T13:53:04;2.92;;;0.30;;
70832;SDS011;58452;59.418;17.962;2023-06-10T13:55:29;2.05;;;0.47;;
70832;SDS011;58452;59.418;17.962;2023-06-10T13:57:55;0.80;;;0.60;;
70832;SDS011;58452;59.418;17.962;2023-06-10T14:00:20;1.52;;;0.93;;
70832;SDS011;58452;59.418;17.962;2023-06-10T14:02:46;4.80;;;0.70;;
70832;SDS011;58452;59.418;17.962;2023-06-10T14:05:11;0.52;;;0.32;;
70832;SDS011;58452;59.418;17.962;2023-06-10T14:07:37;1.45;;;0.70;;
70832;SDS011;58452;59.418;17.962;2023-06-10T14:10:02;1.50;;;0.40;;
70832;SDS011;58452;59.418;17.962;2023-06-10T14:12:28;0.28;;;0.22;;
70832;SDS011;58452;59.418;17.962;2023-06-10T14:14:53;0.88;;;0.60;;
70832;SDS011;58452;59.418;17.962;2023-06-10T14:17:19;7.43;;;0.70;;
70832;SDS011;58452;59.418;17.962;2023-06-10T14:19:44;2.75;;;0.52;;
70832;SDS011;58452;59.418;17.962;2023-06-10T14:22:10;1.55;;;0.60;;
70832;SDS011;58452;59.418;17.962;2023-06-10T14:24:35;2.15;;;0.60;;
70832;SDS011;58452;59.418;17.962;2023-06-10T14:27:01;1.30;;;0.50;;
70832;SDS011;58452;59.418;17.962;2023-06-10T14:29:27;0.73;;;0.68;;
70832;SDS011;58452;59.418;17.962;2023-06-10T14:31:54;2.53;;;0.47;;
70832;SDS011;58452;59.418;17.962;2023-06-10T14:34:20;0.70;;;0.55;;
70832;SDS011;58452;59.418;17.962;2023-06-10T14:36:45;1.15;;;0.60;;
70832;SDS011;58452;59.418;17.962;2023-06-10T14:39:11;0.52;;;0.52;;
70832;SDS011;58452;59.418;17.962;2023-06-10T14:41:36;0.82;;;0.55;;
70832;SDS011;58452;59.418;17.962;2023-06-10T14:44:02;0.60;;;0.60;;